Date,TemperatureHighF,TemperatureAvgF,TemperatureLowF,DewpointHighF,DewpointAvgF,DewpointLowF,HumidityHigh,HumidityAvg,HumidityLow,PressureMaxIn,PressureMinIn,WindSpeedMaxMPH,WindSpeedAvgMPH,GustSpeedMaxMPH,PrecipitationSumIn
2013-3-1,52.0,48.1,46.2,27.3,26.6,25.4,47,43,36,29.97,29.79,6,0,6,0.00
2013-3-2,64.6,50.8,44.2,37.6,29.3,-99.9,59,46,25,29.85,29.71,11,-4,11,0.00
2013-3-3,58.5,52.1,46.6,43.3,32.1,-99.9,75,49,28,29.77,29.56,25,5,25,0.21
2013-3-4,67.3,53.1,41.5,35.2,27.0,18.7,58,39,17,29.97,29.77,9,1,9,0.00
2013-3-5,60.4,51.7,46.2,32.9,25.3,18.5,59,37,24,30.21,29.97,14,4,14,0.00
2013-3-6,64.4,53.2,41.2,26.6,21.8,16.5,45,30,18,30.18,29.94,11,2,11,0.00
2013-3-7,58.8,54.3,51.6,44.2,36.8,26.1,69,52,36,29.97,29.74,6,1,6,0.20
2013-3-8,68.7,57.2,50.5,48.7,41.8,32.2,78,59,27,29.74,29.65,8,1,8,0.00
2013-3-9,73.8,60.3,50.9,56.3,39.3,-99.9,78,50,24,29.71,29.56,7,-9,7,0.00
2013-3-10,73.6,61.6,54.7,40.5,34.9,-99.9,55,39,18,29.65,29.53,8,-6,8,0.00
2013-3-11,75.0,63.5,53.8,50.5,39.6,31.8,69,44,24,29.53,29.38,8,1,8,0.00
2013-3-12,75.2,63.4,55.4,36.0,29.3,20.8,42,29,16,29.56,29.38,8,2,8,0.00
2013-3-13,71.4,61.8,51.6,48.7,33.9,28.6,66,37,22,29.59,29.50,17,2,17,0.00
2013-3-14,73.2,64.3,57.9,48.6,33.2,20.7,67,34,16,29.53,29.15,27,5,27,0.00
2013-3-15,68.0,59.1,51.6,31.6,26.9,22.6,38,30,20,29.47,29.21,13,3,13,0.00
2013-3-16,63.7,53.4,46.8,28.8,22.8,16.5,44,31,18,29.85,29.41,10,2,10,0.00
2013-3-17,62.8,51.7,43.3,29.1,21.0,14.7,47,31,18,30.00,29.83,8,2,10,0.00
2013-3-18,63.5,53.3,45.3,39.7,29.7,22.3,60,42,24,30.00,29.80,13,2,13,0.00
2013-3-19,67.8,60.3,54.3,44.1,39.0,35.4,57,46,32,29.80,29.62,20,4,20,0.00
2013-3-20,73.8,62.8,50.7,47.8,36.0,26.8,69,40,22,29.74,29.62,12,1,12,0.00
2013-3-21,71.1,64.7,60.1,45.3,36.3,30.2,56,36,23,29.65,29.38,14,2,14,0.00
2013-3-22,69.8,60.5,52.5,32.7,22.9,14.2,41,24,17,29.59,29.38,11,3,11,0.00
2013-3-23,70.7,59.0,47.5,29.1,18.1,7.3,35,21,15,29.83,29.59,13,2,13,0.00
2013-3-24,72.1,60.1,48.0,38.5,29.4,23.0,47,32,19,29.85,29.74,13,2,13,0.00
2013-3-25,71.4,61.8,54.1,48.6,38.3,32.4,66,43,25,29.80,29.44,22,4,22,0.00
2013-3-26,75.0,63.5,56.3,47.7,35.4,27.3,65,38,21,29.50,29.38,12,2,12,0.00
2013-3-27,74.8,63.0,54.7,38.5,33.4,27.9,44,34,21,29.68,29.50,12,2,13,0.00
2013-3-28,75.2,60.8,55.6,44.6,38.2,31.6,59,44,22,29.88,29.68,7,1,7,0.09
2013-3-29,73.8,62.0,53.1,46.8,40.3,31.8,67,47,24,29.88,29.80,6,1,6,0.00
2013-3-30,79.3,67.1,56.7,44.8,37.5,25.5,60,37,15,29.85,29.65,13,2,13,0.00
2013-3-31,76.8,65.9,57.6,43.9,38.6,32.0,52,38,22,29.71,29.59,13,2,13,0.00